Time;durP1;ratioP1;P1;durP2;ratioP2;P2;SDS_P1;SDS_P2;PMS_P1;PMS_P2;Temp;Humidity;BMP_temperature;BMP_pressure;BME280_temperature;BME280_humidity;BME280_pressure;Samples;Min_cycle;Max_cycle;Signal;HPM_P1;HPM_P2
2022/10/29 00:00:42;;;;;;;7.35;3.90;;;18.20;91.90;;;;;;4973126;28;20125;-80
2022/10/29 00:03:07;;;;;;;8.37;3.87;;;18.20;91.90;;;;;;4948406;28;22362;-79
2022/10/29 00:05:33;;;;;;;7.40;4.18;;;18.20;91.90;;;;;;4971308;28;20499;-79
2022/10/29 00:07:59;;;;;;;8.07;3.85;;;18.20;91.80;;;;;;4956194;28;20034;-79
2022/10/29 00:10:26;;;;;;;6.23;3.50;;;18.10;91.70;;;;;;4961713;28;20611;-79
2022/10/29 00:12:51;;;;;;;7.57;3.47;;;18.10;91.70;;;;;;4968085;28;20042;-79
2022/10/29 00:15:17;;;;;;;6.57;3.38;;;18.10;91.70;;;;;;4941221;28;20410;-80
2022/10/29 00:17:43;;;;;;;5.10;3.20;;;18.00;91.70;;;;;;4957347;28;20033;-80
2022/10/29 00:20:09;;;;;;;7.35;3.38;;;18.00;91.70;;;;;;4963214;28;20197;-79
2022/10/29 00:22:34;;;;;;;6.27;2.90;;;17.90;91.70;;;;;;4983895;28;20037;-80
2022/10/29 00:25:00;;;;;;;7.45;2.85;;;17.90;91.90;;;;;;4936793;28;20487;-80
2022/10/29 00:27:26;;;;;;;5.47;3.20;;;17.80;91.80;;;;;;4966257;28;20509;-79
2022/10/29 00:29:51;;;;;;;6.72;3.35;;;17.80;91.90;;;;;;4968854;28;20033;-80
2022/10/29 00:32:17;;;;;;;6.30;2.97;;;17.80;91.90;;;;;;4973362;28;20030;-80
2022/10/29 00:34:43;;;;;;;6.77;3.10;;;17.80;92.00;;;;;;4974162;28;20033;-79
2022/10/29 00:37:08;;;;;;;6.83;3.20;;;17.70;92.00;;;;;;4961401;28;20023;-80
2022/10/29 00:39:34;;;;;;;7.03;3.25;;;17.70;92.00;;;;;;4959426;28;20029;-80
2022/10/29 00:42:00;;;;;;;6.83;3.30;;;17.70;92.10;;;;;;4924519;28;20070;-80
2022/10/29 00:44:29;;;;;;;5.88;3.00;;;17.60;92.10;;;;;;4964194;28;20042;-79
2022/10/29 00:46:57;;;;;;;5.35;2.85;;;17.70;92.10;;;;;;4965729;28;20488;-80
2022/10/29 00:49:25;;;;;;;4.55;2.92;;;17.60;92.10;;;;;;4961875;28;22200;-79
2022/10/29 00:51:51;;;;;;;5.78;3.00;;;17.60;92.20;;;;;;4969899;28;20282;-79
2022/10/29 00:54:18;;;;;;;5.13;2.73;;;17.60;92.30;;;;;;4967674;28;20276;-80
2022/10/29 00:56:52;;;;;;;5.40;2.58;;;17.50;92.30;;;;;;4953355;28;20037;-80
2022/10/29 00:59:18;;;;;;;6.00;2.80;;;17.50;92.40;;;;;;4955610;28;20240;-79
2022/10/29 01:01:45;;;;;;;5.57;2.80;;;17.50;92.40;;;;;;4975221;28;20053;-80
2022/10/29 01:04:12;;;;;;;7.85;3.40;;;17.50;92.40;;;;;;4958496;28;20338;-80
2022/10/29 01:06:38;;;;;;;6.93;2.78;;;17.50;92.50;;;;;;4966009;28;20044;-80
2022/10/29 01:09:04;;;;;;;5.40;2.50;;;17.40;92.50;;;;;;4946842;28;20402;-79
2022/10/29 01:11:59;;;;;;;6.90;2.83;;;17.40;92.60;;;;;;4948417;28;20030;-80
2022/10/29 01:14:49;;;;;;;5.97;2.80;;;17.40;92.80;;;;;;4971335;28;20231;-80
2022/10/29 01:17:29;;;;;;;5.72;2.83;;;17.40;92.80;;;;;;4965119;28;20038;-79
2022/10/29 01:20:22;;;;;;;5.88;2.78;;;17.40;92.80;;;;;;4960024;28;20437;-80
2022/10/29 01:23:15;;;;;;;6.17;2.73;;;17.40;92.80;;;;;;4964824;28;20510;-80
2022/10/29 01:26:13;;;;;;;4.72;2.70;;;17.40;92.90;;;;;;4978301;28;20096;-80
2022/10/29 01:28:48;;;;;;;6.53;2.90;;;17.40;92.70;;;;;;4932528;28;20061;-83
2022/10/29 01:31:26;;;;;;;5.63;2.85;;;17.40;92.80;;;;;;4968022;28;20320;-82
2022/10/29 01:33:55;;;;;;;5.82;2.72;;;17.30;92.80;;;;;;4970401;28;20170;-82
2022/10/29 01:36:43;;;;;;;5.73;3.10;;;17.30;92.80;;;;;;4969074;28;20022;-80
2022/10/29 01:39:20;;;;;;;7.50;3.03;;;17.30;93.00;;;;;;4948017;28;20073;-80
2022/10/29 01:42:11;;;;;;;4.55;2.90;;;17.30;92.90;;;;;;4966915;28;20030;-80
2022/10/29 01:44:43;;;;;;;6.47;2.90;;;17.30;93.00;;;;;;4962633;28;20407;-80
2022/10/29 01:47:17;;;;;;;5.85;2.88;;;17.20;93.00;;;;;;4960703;28;20035;-80
2022/10/29 01:49:48;;;;;;;5.03;2.67;;;17.20;93.00;;;;;;4969072;28;20029;-80
2022/10/29 01:52:17;;;;;;;7.45;3.03;;;17.20;93.00;;;;;;4946727;28;20373;-80
2022/10/29 01:54:44;;;;;;;6.50;2.90;;;17.20;93.10;;;;;;4959662;28;20027;-80
2022/10/29 01:57:35;;;;;;;8.38;2.80;;;17.20;93.20;;;;;;4943496;28;20453;-80
2022/10/29 02:00:09;;;;;;;5.38;2.67;;;17.20;93.40;;;;;;4950491;28;20025;-80
2022/10/29 02:02:48;;;;;;;4.67;2.63;;;17.20;93.30;;;;;;4961063;28;20034;-80
2022/10/29 02:05:31;;;;;;;6.32;2.80;;;17.20;93.40;;;;;;4962090;28;20146;-80
2022/10/29 02:08:20;;;;;;;5.47;2.95;;;17.20;93.40;;;;;;4942424;28;20022;-80
2022/10/29 02:11:11;;;;;;;5.53;2.60;;;17.20;93.40;;;;;;4961895;28;20042;-79
2022/10/29 02:13:45;;;;;;;5.15;2.80;;;17.20;93.30;;;;;;4922379;28;20046;-80
2022/10/29 02:16:13;;;;;;;7.13;3.00;;;17.20;93.30;;;;;;4940472;28;20504;-80
2022/10/29 02:18:45;;;;;;;5.05;2.72;;;17.20;93.20;;;;;;4974147;28;20521;-80
2022/10/29 02:21:14;;;;;;;5.32;2.95;;;17.20;93.20;;;;;;4954090;28;20026;-80
2022/10/29 02:23:40;;;;;;;6.03;2.83;;;17.10;93.20;;;;;;4963703;28;20884;-80
2022/10/29 02:26:06;;;;;;;7.10;3.00;;;17.10;93.10;;;;;;4966790;28;20398;-80
2022/10/29 02:28:31;;;;;;;5.35;2.70;;;17.10;93.10;;;;;;4971303;28;20051;-80
2022/10/29 02:30:57;;;;;;;4.70;2.53;;;17.00;93.00;;;;;;4928907;28;20033;-80
2022/10/29 02:33:23;;;;;;;6.07;2.87;;;17.00;93.10;;;;;;4947487;28;20239;-80
2022/10/29 02:35:48;;;;;;;5.40;2.80;;;17.00;93.10;;;;;;4953699;28;20027;-80
2022/10/29 02:38:14;;;;;;;5.63;2.60;;;16.90;93.10;;;;;;4951362;28;20062;-80
2022/10/29 02:40:40;;;;;;;6.43;2.37;;;16.90;93.20;;;;;;4957222;28;20301;-80
2022/10/29 02:43:05;;;;;;;5.78;2.55;;;16.80;93.20;;;;;;4954036;28;20579;-80
2022/10/29 02:45:31;;;;;;;4.77;2.53;;;16.80;93.40;;;;;;4942376;28;20569;-80
2022/10/29 02:47:57;;;;;;;4.63;2.60;;;16.80;93.50;;;;;;4942781;28;20037;-80
2022/10/29 02:50:22;;;;;;;5.88;2.53;;;16.80;93.60;;;;;;4957955;28;20031;-80
2022/10/29 02:52:48;;;;;;;5.53;2.73;;;16.80;93.70;;;;;;4970752;28;20514;-80
2022/10/29 02:55:13;;;;;;;8.52;2.83;;;16.80;93.80;;;;;;4961387;28;20311;-80
2022/10/29 02:57:43;;;;;;;3.97;2.33;;;16.80;93.80;;;;;;4967087;28;20149;-80
2022/10/29 03:00:09;;;;;;;5.85;2.72;;;16.90;94.00;;;;;;4930154;28;20260;-80
2022/10/29 03:02:36;;;;;;;6.53;2.50;;;16.90;94.00;;;;;;5003300;28;20487;-80
2022/10/29 03:05:02;;;;;;;3.77;2.10;;;16.90;94.10;;;;;;4955460;28;20027;-80
2022/10/29 03:07:28;;;;;;;5.97;2.55;;;17.00;94.20;;;;;;4963095;28;20026;-80
2022/10/29 03:09:53;;;;;;;6.53;2.30;;;17.00;94.30;;;;;;4974039;28;20030;-80
2022/10/29 03:12:19;;;;;;;7.90;2.55;;;17.00;94.30;;;;;;4948310;28;20022;-80
2022/10/29 03:14:44;;;;;;;4.83;2.73;;;17.00;94.40;;;;;;4971864;28;20039;-80
2022/10/29 03:17:10;;;;;;;4.70;2.40;;;17.00;94.40;;;;;;4926041;28;20037;-80
2022/10/29 03:19:36;;;;;;;5.13;2.58;;;17.00;94.50;;;;;;4961375;28;20038;-80
2022/10/29 03:22:01;;;;;;;5.40;2.20;;;17.10;94.50;;;;;;4958995;28;20441;-80
2022/10/29 03:24:27;;;;;;;5.20;2.30;;;17.00;94.50;;;;;;4968948;28;20031;-80
2022/10/29 03:26:52;;;;;;;4.93;2.40;;;17.10;94.60;;;;;;4954337;28;20046;-81
2022/10/29 03:29:18;;;;;;;5.10;2.42;;;17.10;94.60;;;;;;4969294;28;20074;-80
2022/10/29 03:31:44;;;;;;;5.17;2.20;;;17.10;94.60;;;;;;4933905;28;20088;-80
2022/10/29 03:34:09;;;;;;;5.17;2.20;;;17.10;94.60;;;;;;4958835;28;20490;-80
2022/10/29 03:36:35;;;;;;;5.95;2.55;;;17.10;94.70;;;;;;4966899;28;20037;-80
2022/10/29 03:39:00;;;;;;;3.63;2.20;;;17.20;94.70;;;;;;4962409;28;20026;-80
2022/10/29 03:41:26;;;;;;;4.65;2.08;;;17.10;94.70;;;;;;4960965;28;20090;-80
2022/10/29 03:43:52;;;;;;;6.00;2.43;;;17.10;94.70;;;;;;4958547;28;20113;-80
2022/10/29 03:46:17;;;;;;;5.25;2.40;;;17.20;94.80;;;;;;4946779;28;20037;-80
2022/10/29 03:48:43;;;;;;;5.53;2.20;;;17.20;94.80;;;;;;4969094;28;20739;-80
2022/10/29 03:51:09;;;;;;;3.90;1.87;;;17.20;94.80;;;;;;4962148;28;20145;-80
2022/10/29 03:53:35;;;;;;;3.50;2.10;;;17.20;94.80;;;;;;4982402;28;20281;-80
2022/10/29 03:56:02;;;;;;;4.43;2.40;;;17.20;94.80;;;;;;4959387;28;20031;-80
2022/10/29 03:58:28;;;;;;;5.60;2.47;;;17.20;94.80;;;;;;4955980;28;20088;-80
2022/10/29 04:00:58;;;;;;;4.28;2.28;;;17.10;94.80;;;;;;4951085;28;20034;-80
2022/10/29 04:03:25;;;;;;;5.27;2.20;;;17.20;94.80;;;;;;4970845;28;20019;-80
2022/10/29 04:05:51;;;;;;;5.18;2.22;;;17.20;94.80;;;;;;4959132;28;20467;-80
2022/10/29 04:08:17;;;;;;;5.68;2.38;;;17.20;94.80;;;;;;4964840;28;20030;-80
2022/10/29 04:10:44;;;;;;;3.87;2.30;;;17.20;94.80;;;;;;4946707;28;20056;-80
2022/10/29 04:13:10;;;;;;;4.28;2.25;;;17.20;94.90;;;;;;4975850;28;20212;-80
2022/10/29 04:15:35;;;;;;;5.33;2.30;;;17.20;94.90;;;;;;4952030;28;20117;-80
2022/10/29 04:18:01;;;;;;;4.90;2.20;;;17.20;94.90;;;;;;4930443;28;20070;-80
2022/10/29 04:20:27;;;;;;;4.03;2.13;;;17.20;94.90;;;;;;4965890;28;20053;-80
2022/10/29 04:22:52;;;;;;;3.70;2.20;;;17.20;94.90;;;;;;4957849;28;20521;-80
2022/10/29 04:25:18;;;;;;;5.50;2.27;;;17.10;94.80;;;;;;4957376;28;20053;-80
2022/10/29 04:27:43;;;;;;;5.27;2.50;;;17.20;94.90;;;;;;4974905;28;20029;-80
2022/10/29 04:30:09;;;;;;;5.28;2.35;;;17.10;94.80;;;;;;4945274;28;20022;-80
2022/10/29 04:32:35;;;;;;;5.45;2.67;;;17.10;94.80;;;;;;4932247;28;20149;-80
2022/10/29 04:35:01;;;;;;;4.37;2.40;;;17.10;94.90;;;;;;4967991;28;20030;-80
2022/10/29 04:37:29;;;;;;;4.13;2.50;;;17.10;94.90;;;;;;4950777;28;20383;-80
2022/10/29 04:39:55;;;;;;;5.05;2.60;;;17.10;95.00;;;;;;4953912;28;20143;-80
2022/10/29 04:42:21;;;;;;;6.18;2.90;;;17.00;95.00;;;;;;4966390;28;20034;-80
2022/10/29 04:44:46;;;;;;;4.83;2.60;;;17.10;95.10;;;;;;4960027;28;20244;-80
2022/10/29 04:47:12;;;;;;;5.00;2.57;;;17.10;95.10;;;;;;4937003;28;20057;-80
2022/10/29 04:49:38;;;;;;;8.10;2.45;;;17.00;95.20;;;;;;4968493;28;20503;-80
2022/10/29 04:52:03;;;;;;;5.53;2.45;;;17.00;95.20;;;;;;4958072;28;20125;-80
2022/10/29 04:54:29;;;;;;;6.73;2.77;;;17.00;95.30;;;;;;4935681;28;20505;-80
2022/10/29 04:56:55;;;;;;;5.75;2.65;;;17.10;95.30;;;;;;4957122;28;20027;-80
2022/10/29 04:59:20;;;;;;;7.33;2.70;;;17.10;95.40;;;;;;4967556;28;20114;-80
2022/10/29 05:01:46;;;;;;;5.90;2.92;;;17.10;95.50;;;;;;4938685;28;20148;-80
2022/10/29 05:04:12;;;;;;;6.63;2.80;;;17.10;95.60;;;;;;4926973;28;20026;-80
2022/10/29 05:06:37;;;;;;;5.28;2.53;;;17.10;95.60;;;;;;4972872;28;20031;-80
2022/10/29 05:09:03;;;;;;;5.83;3.03;;;17.10;95.60;;;;;;4944734;28;20046;-80
2022/10/29 05:11:29;;;;;;;5.75;2.85;;;17.10;95.70;;;;;;4961164;28;20339;-80
2022/10/29 05:13:54;;;;;;;6.07;2.77;;;17.20;95.80;;;;;;4979913;28;20136;-80
2022/10/29 05:16:20;;;;;;;7.10;2.87;;;17.20;95.80;;;;;;4967592;28;20219;-80
2022/10/29 05:18:46;;;;;;;6.43;2.88;;;17.20;95.90;;;;;;4933976;28;20419;-80
2022/10/29 05:21:11;;;;;;;6.67;3.07;;;17.20;95.90;;;;;;4969408;28;20117;-80
2022/10/29 05:23:37;;;;;;;5.95;2.90;;;17.20;95.90;;;;;;4957430;28;20038;-80
2022/10/29 05:26:03;;;;;;;5.83;2.70;;;17.20;95.90;;;;;;4937877;28;20204;-80
2022/10/29 05:28:28;;;;;;;11.48;2.70;;;17.20;95.80;;;;;;4988100;28;20498;-80
2022/10/29 05:30:54;;;;;;;4.93;2.60;;;17.20;95.80;;;;;;4972807;28;20025;-80
2022/10/29 05:33:22;;;;;;;5.20;2.67;;;17.20;95.70;;;;;;4953331;28;20034;-80
2022/10/29 05:35:48;;;;;;;6.47;2.87;;;17.20;95.70;;;;;;4937375;28;20130;-80
2022/10/29 05:38:14;;;;;;;5.90;2.80;;;17.20;95.70;;;;;;4960666;28;20831;-80
2022/10/29 05:40:43;;;;;;;7.20;2.67;;;17.20;95.60;;;;;;4946042;28;20174;-80
2022/10/29 05:43:10;;;;;;;6.53;2.78;;;17.20;95.60;;;;;;4934897;28;20232;-81
2022/10/29 05:45:35;;;;;;;7.27;2.67;;;17.20;95.60;;;;;;4966015;28;20032;-80
2022/10/29 05:48:03;;;;;;;7.28;2.95;;;17.10;95.60;;;;;;4962452;28;20240;-80
2022/10/29 05:50:29;;;;;;;6.03;2.63;;;17.10;95.60;;;;;;4946451;28;20022;-80
2022/10/29 05:53:06;;;;;;;7.07;2.80;;;17.00;95.50;;;;;;4969433;28;20450;-80
2022/10/29 05:55:33;;;;;;;5.13;2.80;;;17.00;95.60;;;;;;4927375;28;20394;-80
2022/10/29 05:58:01;;;;;;;7.28;2.50;;;17.00;95.50;;;;;;4963815;28;20034;-80
2022/10/29 06:00:29;;;;;;;6.97;2.80;;;17.00;95.50;;;;;;4967898;28;20038;-80
2022/10/29 06:02:54;;;;;;;5.25;3.03;;;16.90;95.50;;;;;;4944010;28;20479;-80
2022/10/29 06:05:20;;;;;;;6.53;2.70;;;16.80;95.50;;;;;;4955201;28;20033;-80
2022/10/29 06:07:55;;;;;;;5.78;2.90;;;16.80;95.60;;;;;;4942283;28;20096;-81
2022/10/29 06:10:22;;;;;;;6.18;2.70;;;16.80;95.70;;;;;;4989774;28;20034;-80
2022/10/29 06:12:48;;;;;;;6.93;2.70;;;16.80;95.60;;;;;;4946004;28;20339;-80
2022/10/29 06:15:14;;;;;;;6.78;2.80;;;16.70;95.60;;;;;;4961311;28;20351;-80
2022/10/29 06:17:43;;;;;;;4.65;2.67;;;16.70;95.60;;;;;;4975524;28;20813;-80
2022/10/29 06:20:11;;;;;;;6.57;2.92;;;16.70;95.70;;;;;;4955651;28;21094;-80
2022/10/29 06:22:36;;;;;;;4.47;2.63;;;16.70;95.60;;;;;;4940733;28;20030;-81
2022/10/29 06:25:02;;;;;;;4.93;2.25;;;16.60;95.50;;;;;;4957700;28;20113;-80
2022/10/29 06:27:28;;;;;;;4.43;2.60;;;16.60;95.50;;;;;;4943779;28;20043;-80
2022/10/29 06:29:54;;;;;;;7.27;2.93;;;16.60;95.50;;;;;;4941882;28;20033;-80
2022/10/29 06:32:19;;;;;;;5.43;2.80;;;16.50;95.50;;;;;;4966948;28;20116;-80
2022/10/29 06:34:45;;;;;;;5.57;2.73;;;16.50;95.50;;;;;;4964235;28;20289;-80
2022/10/29 06:37:11;;;;;;;5.83;2.77;;;16.40;95.50;;;;;;4923428;28;20140;-80
2022/10/29 06:39:36;;;;;;;6.43;2.93;;;16.40;95.50;;;;;;4964941;28;20293;-80
2022/10/29 06:42:02;;;;;;;5.07;2.60;;;16.40;95.60;;;;;;4956859;28;20034;-80
2022/10/29 06:44:28;;;;;;;4.50;2.70;;;16.40;95.60;;;;;;4959273;28;20097;-80
2022/10/29 06:46:53;;;;;;;7.43;2.80;;;16.30;95.70;;;;;;4957549;28;20030;-80
2022/10/29 06:49:20;;;;;;;5.28;2.70;;;16.40;95.70;;;;;;4975162;28;20037;-80
2022/10/29 06:51:46;;;;;;;5.50;2.60;;;16.30;95.80;;;;;;4964474;28;20439;-80
2022/10/29 06:54:12;;;;;;;6.80;2.90;;;16.30;95.90;;;;;;4932823;28;20347;-80
2022/10/29 06:56:37;;;;;;;5.07;2.90;;;16.30;96.00;;;;;;4944371;28;20533;-80
2022/10/29 06:59:03;;;;;;;4.28;2.60;;;16.30;96.10;;;;;;4944146;28;20156;-80
2022/10/29 07:01:31;;;;;;;6.53;2.97;;;16.30;96.20;;;;;;4988826;28;20338;-80
2022/10/29 07:04:00;;;;;;;6.38;3.10;;;16.40;96.40;;;;;;4956122;28;20078;-80
2022/10/29 07:06:26;;;;;;;6.57;3.08;;;16.40;96.50;;;;;;4972725;28;20930;-80
2022/10/29 07:08:52;;;;;;;6.88;3.08;;;16.40;96.70;;;;;;4933993;28;20478;-80
2022/10/29 07:11:18;;;;;;;5.80;3.17;;;16.50;96.80;;;;;;4948697;28;20113;-80
2022/10/29 07:13:43;;;;;;;4.88;2.80;;;16.50;96.90;;;;;;4950615;28;20672;-80
2022/10/29 07:16:09;;;;;;;6.20;3.40;;;16.50;97.00;;;;;;4944928;28;20084;-80
2022/10/29 07:18:35;;;;;;;6.88;3.17;;;16.60;97.10;;;;;;4975262;28;20315;-80
2022/10/29 07:21:04;;;;;;;6.80;3.57;;;16.60;97.10;;;;;;4953274;28;20069;-81
2022/10/29 07:23:29;;;;;;;8.30;3.28;;;16.70;97.20;;;;;;4932055;28;20564;-80
2022/10/29 07:25:55;;;;;;;5.00;3.53;;;16.80;97.20;;;;;;4971375;28;20038;-80
2022/10/29 07:28:24;;;;;;;7.00;3.50;;;16.80;97.20;;;;;;4957014;28;20764;-80
2022/10/29 07:30:51;;;;;;;7.55;3.38;;;16.80;97.20;;;;;;4973398;28;20041;-80
2022/10/29 07:33:17;;;;;;;8.13;3.77;;;16.90;97.20;;;;;;4950820;28;20421;-81
2022/10/29 07:35:43;;;;;;;6.50;3.20;;;16.90;97.20;;;;;;4947287;28;20266;-80
2022/10/29 07:38:11;;;;;;;6.50;3.60;;;16.90;97.30;;;;;;4955082;28;20156;-83
2022/10/29 07:40:38;;;;;;;6.78;3.35;;;16.90;97.40;;;;;;4927276;28;20117;-82
2022/10/29 07:43:04;;;;;;;6.85;3.42;;;17.00;97.60;;;;;;4948277;28;20111;-82
2022/10/29 07:45:29;;;;;;;5.43;3.03;;;17.00;97.60;;;;;;4951878;28;20480;-82
2022/10/29 07:48:02;;;;;;;5.77;3.40;;;17.10;97.70;;;;;;4970426;28;20015;-82
2022/10/29 07:50:30;;;;;;;6.43;3.28;;;17.10;98.20;;;;;;4960815;28;20014;-82
2022/10/29 07:52:58;;;;;;;7.00;3.38;;;17.20;97.90;;;;;;4942895;28;20420;-83
2022/10/29 07:55:24;;;;;;;6.68;3.50;;;17.30;98.00;;;;;;4926620;28;20424;-82
2022/10/29 07:58:00;;;;;;;7.47;3.20;;;17.30;98.10;;;;;;4961422;28;20069;-82
2022/10/29 08:00:35;;;;;;;6.47;3.17;;;17.40;98.20;;;;;;4958857;28;20018;-83
2022/10/29 08:03:02;;;;;;;6.28;3.35;;;17.50;98.30;;;;;;4960015;28;20117;-82
2022/10/29 08:05:28;;;;;;;6.13;3.30;;;17.50;98.30;;;;;;4977198;28;20392;-83
2022/10/29 08:07:55;;;;;;;5.23;3.17;;;17.60;98.40;;;;;;4950657;28;20038;-82
2022/10/29 08:10:22;;;;;;;5.47;3.35;;;17.70;98.40;;;;;;4969555;28;20403;-82
2022/10/29 08:12:56;;;;;;;6.97;3.60;;;17.80;98.50;;;;;;4932488;28;20023;-82
2022/10/29 08:15:22;;;;;;;6.05;2.80;;;17.80;98.50;;;;;;4976973;28;20046;-82
2022/10/29 08:17:48;;;;;;;6.88;3.20;;;17.90;98.50;;;;;;4968647;28;20030;-82
2022/10/29 08:20:14;;;;;;;6.00;3.23;;;18.00;98.50;;;;;;4979615;28;20027;-82
2022/10/29 08:22:40;;;;;;;5.18;3.35;;;18.00;98.50;;;;;;4953149;28;20031;-82
2022/10/29 08:25:07;;;;;;;5.97;3.20;;;18.10;98.60;;;;;;4959781;28;20034;-82
2022/10/29 08:27:32;;;;;;;6.80;3.20;;;18.20;98.60;;;;;;4926044;28;20027;-82
2022/10/29 08:29:58;;;;;;;5.47;3.00;;;18.20;98.70;;;;;;4943005;28;20054;-82
2022/10/29 08:32:23;;;;;;;4.97;3.38;;;18.30;98.90;;;;;;4960348;28;20038;-81
2022/10/29 08:34:49;;;;;;;5.60;3.13;;;18.40;99.10;;;;;;4967684;28;20593;-81
2022/10/29 08:37:15;;;;;;;6.70;3.22;;;18.50;99.40;;;;;;4973753;28;20486;-82
2022/10/29 08:39:40;;;;;;;6.60;2.97;;;18.70;99.50;;;;;;4953774;28;20442;-81
2022/10/29 08:42:23;;;;;;;6.83;3.13;;;18.70;99.50;;;;;;4938452;28;20030;-82
2022/10/29 08:45:01;;;;;;;7.80;3.20;;;18.90;99.20;;;;;;4954129;28;20025;-81
2022/10/29 08:47:30;;;;;;;5.95;3.47;;;19.00;99.40;;;;;;4985970;28;20073;-81
2022/10/29 08:50:29;;;;;;;7.53;3.20;;;19.20;99.60;;;;;;4980082;28;20019;-81
2022/10/29 08:52:55;;;;;;;7.07;2.72;;;19.30;99.30;;;;;;4990716;28;20446;-82
2022/10/29 08:55:35;;;;;;;5.83;3.33;;;19.50;99.90;;;;;;4974877;28;20395;-82
2022/10/29 08:58:39;;;;;;;5.20;3.03;;;19.60;99.50;;;;;;4937113;28;20046;-82
2022/10/29 09:01:10;;;;;;;7.40;2.83;;;19.80;99.20;;;;;;4946629;28;20668;-82
2022/10/29 09:03:36;;;;;;;7.70;2.78;;;19.90;99.40;;;;;;4945510;28;20042;-81
2022/10/29 09:06:36;;;;;;;5.07;2.87;;;20.00;99.60;;;;;;4971651;28;20030;-82
2022/10/29 09:09:33;;;;;;;5.18;2.70;;;20.20;99.20;;;;;;4958404;28;20022;-80
2022/10/29 09:11:59;;;;;;;5.45;2.50;;;20.40;99.20;;;;;;4911833;28;20494;-80
2022/10/29 09:15:06;;;;;;;5.50;2.63;;;20.60;99.90;;;;;;4940372;28;20045;-80
2022/10/29 09:17:59;;;;;;;6.43;2.60;;;21.00;99.90;;;;;;4931292;28;20070;-79
2022/10/29 09:20:54;;;;;;;5.53;2.38;;;21.50;99.90;;;;;;4973555;28;20475;-78
2022/10/29 09:23:29;;;;;;;5.82;2.20;;;21.90;99.90;;;;;;4973554;28;20033;-79
2022/10/29 09:26:14;;;;;;;4.43;2.38;;;22.40;99.90;;;;;;4954056;28;20267;-81
2022/10/29 09:28:40;;;;;;;6.90;2.37;;;22.90;99.90;;;;;;4945707;28;20062;-80
2022/10/29 09:31:29;;;;;;;5.63;2.42;;;23.40;99.90;;;;;;4950747;28;20598;-80
2022/10/29 09:34:00;;;;;;;5.80;2.50;;;24.00;99.40;;;;;;4951533;28;20145;-80
2022/10/29 09:36:28;;;;;;;4.47;2.23;;;24.40;99.90;;;;;;4974650;28;20057;-79
2022/10/29 09:39:01;;;;;;;3.63;2.05;;;24.70;99.10;;;;;;4933564;28;20026;-80
2022/10/29 09:41:31;;;;;;;6.45;2.40;;;24.90;97.10;;;;;;4971569;28;20073;-80
2022/10/29 09:44:12;;;;;;;4.80;2.30;;;25.00;96.20;;;;;;4918636;28;20023;-79
2022/10/29 09:46:55;;;;;;;5.80;2.42;;;25.00;94.60;;;;;;4968428;28;20479;-80
2022/10/29 09:49:45;;;;;;;6.40;2.57;;;25.00;94.60;;;;;;4929899;28;20038;-80
2022/10/29 09:52:21;;;;;;;5.00;2.28;;;24.90;94.00;;;;;;4970459;28;20233;-80
2022/10/29 09:54:49;;;;;;;5.25;2.30;;;24.80;94.00;;;;;;4966810;28;20022;-80
2022/10/29 09:57:22;;;;;;;6.75;2.50;;;24.80;95.60;;;;;;4967200;28;20235;-80
2022/10/29 09:59:53;;;;;;;4.07;2.40;;;24.80;95.50;;;;;;4959673;28;20030;-80
2022/10/29 10:02:27;;;;;;;5.07;2.20;;;25.00;97.00;;;;;;4967018;28;20077;-80
2022/10/29 10:04:56;;;;;;;4.75;2.20;;;25.20;97.20;;;;;;4947899;28;20070;-80
2022/10/29 10:07:22;;;;;;;5.70;2.60;;;25.50;97.90;;;;;;4971878;28;20105;-80
2022/10/29 10:09:56;;;;;;;4.55;2.40;;;25.90;98.30;;;;;;4951200;28;20602;-80
2022/10/29 10:12:28;;;;;;;6.10;2.30;;;26.30;96.80;;;;;;4977519;28;20487;-80
2022/10/29 10:15:18;;;;;;;5.35;2.30;;;26.60;97.60;;;;;;4932953;28;20033;-79
2022/10/29 10:18:20;;;;;;;5.80;2.42;;;27.00;95.30;;;;;;4968348;28;20030;-80
2022/10/29 10:20:59;;;;;;;3.70;2.20;;;27.40;95.20;;;;;;4958076;28;20027;-80
2022/10/29 10:23:27;;;;;;;3.95;2.13;;;27.90;97.20;;;;;;4954785;28;20030;-80
2022/10/29 10:25:55;;;;;;;4.43;2.20;;;28.20;96.20;;;;;;4967780;28;20443;-81
2022/10/29 10:28:29;;;;;;;5.00;2.50;;;28.40;95.40;;;;;;4945029;28;20368;-81
2022/10/29 10:31:10;;;;;;;7.13;2.45;;;28.60;93.20;;;;;;4929802;28;20035;-80
2022/10/29 10:33:50;;;;;;;6.88;2.30;;;28.80;93.00;;;;;;4968773;28;20037;-81
2022/10/29 10:36:17;;;;;;;5.65;2.47;;;28.90;92.80;;;;;;4953956;28;20026;-81
2022/10/29 10:38:51;;;;;;;4.73;2.30;;;29.20;94.80;;;;;;4967202;28;20030;-80
2022/10/29 10:41:23;;;;;;;4.13;2.33;;;29.40;92.90;;;;;;4955825;28;20026;-80
2022/10/29 10:43:49;;;;;;;4.82;2.38;;;29.70;93.40;;;;;;4965429;28;20019;-82
2022/10/29 10:46:34;;;;;;;6.13;2.53;;;30.10;94.90;;;;;;4919886;28;20862;-81
2022/10/29 10:49:04;;;;;;;7.55;2.80;;;30.40;91.50;;;;;;4963391;28;20026;-81
2022/10/29 10:51:35;;;;;;;4.97;2.37;;;30.70;92.90;;;;;;4951852;28;20410;-81
2022/10/29 10:54:21;;;;;;;3.70;2.20;;;31.00;91.80;;;;;;4968815;28;20018;-80
2022/10/29 10:57:04;;;;;;;5.13;2.85;;;31.20;91.80;;;;;;4965580;28;20111;-81
2022/10/29 10:59:45;;;;;;;3.40;2.20;;;31.50;89.00;;;;;;4982797;28;20608;-81
2022/10/29 11:02:21;;;;;;;4.75;2.28;;;31.80;88.90;;;;;;4962539;28;20228;-81
2022/10/29 11:04:54;;;;;;;4.10;2.17;;;32.00;87.90;;;;;;4977415;28;20034;-81
2022/10/29 11:07:21;;;;;;;4.75;2.53;;;32.20;90.20;;;;;;4977591;28;20040;-81
2022/10/29 11:09:49;;;;;;;4.03;2.25;;;32.40;90.30;;;;;;4958631;28;20090;-80
2022/10/29 11:13:01;;;;;;;5.47;2.20;;;32.60;88.40;;;;;;4970534;28;20069;-80
2022/10/29 11:16:05;;;;;;;4.85;2.60;;;32.80;83.60;;;;;;4978801;28;20041;-81
2022/10/29 11:18:42;;;;;;;5.27;2.60;;;33.10;84.50;;;;;;4877836;29;20074;-80
2022/10/29 11:21:13;;;;;;;5.63;2.53;;;33.20;88.40;;;;;;4890532;29;21402;-80
2022/10/29 11:24:03;;;;;;;4.85;2.58;;;33.50;84.30;;;;;;4938978;28;20074;-81
2022/10/29 11:26:58;;;;;;;5.00;2.60;;;33.60;79.90;;;;;;4938746;28;20042;-80
2022/10/29 11:29:46;;;;;;;4.78;2.70;;;33.80;80.00;;;;;;4971556;28;20027;-81
2022/10/29 11:32:24;;;;;;;3.60;2.50;;;34.00;78.60;;;;;;4946380;28;20312;-80
2022/10/29 11:35:08;;;;;;;3.97;2.47;;;34.20;78.70;;;;;;4966418;28;20026;-81
2022/10/29 11:38:00;;;;;;;4.43;2.40;;;34.30;77.20;;;;;;4933224;28;23414;-80
2022/10/29 11:40:49;;;;;;;3.85;2.38;;;34.60;76.10;;;;;;4939588;28;20184;-80
2022/10/29 11:43:19;;;;;;;4.13;2.33;;;34.80;74.40;;;;;;4942439;28;20022;-80
2022/10/29 11:46:05;;;;;;;4.90;2.63;;;34.90;77.70;;;;;;4954610;28;20037;-80
2022/10/29 11:49:04;;;;;;;5.35;2.40;;;35.10;75.30;;;;;;4963569;28;20406;-81
2022/10/29 11:52:13;;;;;;;4.18;2.58;;;35.20;72.20;;;;;;4951363;28;20081;-81
2022/10/29 11:55:06;;;;;;;3.78;2.30;;;35.40;71.80;;;;;;4884246;29;20581;-80
2022/10/29 11:57:36;;;;;;;4.40;2.50;;;35.50;71.30;;;;;;4965772;28;20442;-81
2022/10/29 12:00:15;;;;;;;4.47;2.40;;;35.50;74.70;;;;;;4994018;28;20030;-81
2022/10/29 12:03:28;;;;;;;6.30;2.63;;;35.70;69.50;;;;;;4941669;28;20113;-81
2022/10/29 12:06:29;;;;;;;3.20;2.22;;;35.70;67.90;;;;;;4972317;28;20030;-81
2022/10/29 12:09:23;;;;;;;5.40;2.40;;;35.80;67.70;;;;;;4971820;28;20049;-81
2022/10/29 12:11:59;;;;;;;3.80;2.60;;;35.70;65.50;;;;;;4966411;28;20687;-81
2022/10/29 12:14:47;;;;;;;4.53;2.33;;;35.70;66.20;;;;;;4934260;28;20052;-81
2022/10/29 12:17:24;;;;;;;4.05;2.20;;;35.80;65.40;;;;;;4936735;28;20110;-81
2022/10/29 12:20:19;;;;;;;4.95;2.45;;;35.90;65.90;;;;;;4964343;28;20117;-80
2022/10/29 12:23:06;;;;;;;5.03;2.50;;;35.90;67.70;;;;;;4951970;28;20109;-81
2022/10/29 12:25:36;;;;;;;4.75;2.50;;;36.10;64.80;;;;;;4975448;28;20046;-81
2022/10/29 12:28:33;;;;;;;5.07;2.40;;;36.20;67.00;;;;;;4963907;28;20042;-81
2022/10/29 12:31:07;;;;;;;5.35;2.72;;;36.30;63.30;;;;;;4960605;28;20023;-81
2022/10/29 12:33:58;;;;;;;3.63;2.25;;;36.40;67.70;;;;;;4947986;28;20022;-81
2022/10/29 12:36:51;;;;;;;3.90;2.38;;;36.40;63.40;;;;;;4961347;28;20390;-81
2022/10/29 12:39:35;;;;;;;8.13;2.35;;;36.20;60.80;;;;;;4948084;28;20050;-81
2022/10/29 12:42:24;;;;;;;5.90;2.10;;;35.90;60.40;;;;;;4967247;28;20057;-81
2022/10/29 12:45:41;;;;;;;3.80;2.08;;;35.50;59.80;;;;;;4958494;28;20034;-81
2022/10/29 12:48:12;;;;;;;5.18;2.17;;;35.00;58.50;;;;;;4886043;29;20130;-81
2022/10/29 12:51:16;;;;;;;6.15;2.20;;;34.50;60.70;;;;;;4882379;29;20513;-80
2022/10/29 12:53:47;;;;;;;3.70;2.08;;;34.00;58.80;;;;;;4943796;28;20331;-81
2022/10/29 12:56:14;;;;;;;4.37;2.00;;;33.60;59.90;;;;;;4961706;28;20058;-80
2022/10/29 12:58:47;;;;;;;5.20;1.75;;;33.20;60.80;;;;;;4959028;28;20515;-81
2022/10/29 13:01:25;;;;;;;3.47;1.90;;;32.80;59.80;;;;;;4975932;28;20058;-80
2022/10/29 13:03:54;;;;;;;5.97;1.90;;;32.60;60.60;;;;;;4945253;28;20038;-80
2022/10/29 13:06:41;;;;;;;4.47;2.15;;;32.30;61.60;;;;;;4968804;28;20046;-81
2022/10/29 13:09:24;;;;;;;4.43;1.80;;;32.10;61.10;;;;;;4977246;28;20030;-80
2022/10/29 13:11:49;;;;;;;4.32;2.20;;;31.90;62.00;;;;;;4973423;28;20035;-81
2022/10/29 13:14:30;;;;;;;5.60;2.10;;;31.70;63.40;;;;;;4965160;28;20086;-81